首页
METAR-TAF:

METAR-TAF

机场 :

土伦, 法国

纬度: 43-06N, 经度: 006-09E, 海拔: 3米

当前天气观测

该预报发布于24分钟前的16:30 UTC
风速5节,风向东北,在北转东北之间变化
温度 13°C
湿度 77%
气压 1021 hPa
能见度10公里或以上
多云层高于2300英尺
阴天层高于9600英尺

METAR: LFTH 241630Z AUTO 05005KT 030V090 9999 BKN023 OVC096 13/09 Q1021 TEMPO RA

时间: 17:54 (16:54 UTC)

预报

该预报发布于2小时和54分钟前的14:00 UTC
预报有效从24日的 15点(UTC)到 25日的 15点(UTC)
风速10节,风向东北,有时为20节阵风
能见度10公里或以上
多云层高于2500英尺
多云层高于3000英尺
阴天层高于6500英尺
短暂存在
从 24日的 15点(UTC)到 25日的 06点(UTC)
能見度: 5000
成为
从 24日的 22点(UTC)到 24日的 23点(UTC)
风速5节,风向

TAF: LFTH 241400Z 2415/2515 05010G20KT 9999 NSW BKN025 BKN030 OVC065 TEMPO 2415/2506 5000 RA BECMG 2422/2423 35005KT

超过4000个机场的气象观测和天气预报(METAR&TAF报告)。

可查询的气象台以黄色和红色小点在地图上表示。

将鼠标移到小点上方,可查看气象台名称。

然后点击查看天气观测和预报。

如需切换地图:点击带黑十字的绿色按钮放大地图;点击带横线的绿色按钮缩小地图;或者点击绿色箭头查看邻近地区的地图。


METAR-TAF: